sensor_id;sensor_type;location;lat;lon;timestamp;P1;durP1;ratioP1;P2;durP2;ratioP2
72109;SDS011;59983;52.010;5.420;2023-02-10T00:01:33;63.40;;;30.75;;
72109;SDS011;59983;52.010;5.420;2023-02-10T00:03:59;68.65;;;35.00;;
72109;SDS011;59983;52.010;5.420;2023-02-10T00:06:26;65.10;;;33.17;;
72109;SDS011;59983;52.010;5.420;2023-02-10T00:08:54;69.17;;;30.90;;
72109;SDS011;59983;52.010;5.420;2023-02-10T00:11:22;82.65;;;34.80;;
72109;SDS011;59983;52.010;5.420;2023-02-10T00:14:10;112.05;;;35.50;;
72109;SDS011;59983;52.010;5.420;2023-02-10T00:16:37;161.25;;;43.83;;
72109;SDS011;59983;52.010;5.420;2023-02-10T00:19:04;114.03;;;37.42;;
72109;SDS011;59983;52.010;5.420;2023-02-10T00:21:31;59.53;;;27.57;;
72109;SDS011;59983;52.010;5.420;2023-02-10T00:23:57;34.00;;;24.10;;
72109;SDS011;59983;52.010;5.420;2023-02-10T00:26:24;53.28;;;25.75;;
72109;SDS011;59983;52.010;5.420;2023-02-10T00:28:51;73.03;;;26.92;;
72109;SDS011;59983;52.010;5.420;2023-02-10T00:31:18;46.60;;;26.05;;
72109;SDS011;59983;52.010;5.420;2023-02-10T00:33:45;67.17;;;24.67;;
72109;SDS011;59983;52.010;5.420;2023-02-10T01:41:26;24.45;;;21.65;;
72109;SDS011;59983;52.010;5.420;2023-02-10T01:43:53;27.25;;;22.45;;
72109;SDS011;59983;52.010;5.420;2023-02-10T01:46:23;31.77;;;23.55;;
72109;SDS011;59983;52.010;5.420;2023-02-10T01:48:50;28.63;;;22.30;;
72109;SDS011;59983;52.010;5.420;2023-02-10T01:51:18;31.65;;;24.17;;
72109;SDS011;59983;52.010;5.420;2023-02-10T01:53:50;40.53;;;24.48;;
72109;SDS011;59983;52.010;5.420;2023-02-10T01:56:18;41.50;;;24.83;;
72109;SDS011;59983;52.010;5.420;2023-02-10T01:58:44;30.13;;;22.73;;
72109;SDS011;59983;52.010;5.420;2023-02-10T02:01:11;26.00;;;23.00;;
72109;SDS011;59983;52.010;5.420;2023-02-10T02:03:38;30.48;;;23.23;;
72109;SDS011;59983;52.010;5.420;2023-02-10T02:06:07;30.33;;;22.42;;
72109;SDS011;59983;52.010;5.420;2023-02-10T02:08:34;30.73;;;23.90;;
72109;SDS011;59983;52.010;5.420;2023-02-10T02:17:05;38.70;;;22.75;;
72109;SDS011;59983;52.010;5.420;2023-02-10T02:28:07;35.10;;;21.60;;
72109;SDS011;59983;52.010;5.420;2023-02-10T02:35:49;24.60;;;21.58;;
72109;SDS011;59983;52.010;5.420;2023-02-10T02:38:20;26.98;;;22.48;;
72109;SDS011;59983;52.010;5.420;2023-02-10T02:40:47;24.80;;;20.70;;
72109;SDS011;59983;52.010;5.420;2023-02-10T02:43:14;30.70;;;23.10;;
72109;SDS011;59983;52.010;5.420;2023-02-10T02:54:00;51.60;;;23.47;;
72109;SDS011;59983;52.010;5.420;2023-02-10T03:01:58;25.33;;;22.85;;
72109;SDS011;59983;52.010;5.420;2023-02-10T03:04:28;30.88;;;21.75;;
72109;SDS011;59983;52.010;5.420;2023-02-10T03:06:57;38.60;;;20.63;;
72109;SDS011;59983;52.010;5.420;2023-02-10T03:09:24;34.47;;;20.98;;
72109;SDS011;59983;52.010;5.420;2023-02-10T03:11:52;38.63;;;21.17;;
72109;SDS011;59983;52.010;5.420;2023-02-10T03:14:18;40.20;;;21.55;;
72109;SDS011;59983;52.010;5.420;2023-02-10T03:16:45;25.15;;;21.52;;
72109;SDS011;59983;52.010;5.420;2023-02-10T03:19:11;26.67;;;20.67;;
72109;SDS011;59983;52.010;5.420;2023-02-10T03:21:38;44.33;;;23.70;;
72109;SDS011;59983;52.010;5.420;2023-02-10T03:24:04;36.65;;;22.45;;
72109;SDS011;59983;52.010;5.420;2023-02-10T03:26:31;41.70;;;20.48;;
72109;SDS011;59983;52.010;5.420;2023-02-10T03:28:58;39.70;;;22.20;;
72109;SDS011;59983;52.010;5.420;2023-02-10T03:31:24;38.10;;;22.70;;
72109;SDS011;59983;52.010;5.420;2023-02-10T03:33:51;32.10;;;22.85;;
72109;SDS011;59983;52.010;5.420;2023-02-10T03:36:17;37.22;;;23.02;;
72109;SDS011;59983;52.010;5.420;2023-02-10T03:38:44;30.30;;;23.65;;
72109;SDS011;59983;52.010;5.420;2023-02-10T03:41:11;38.92;;;22.77;;
72109;SDS011;59983;52.010;5.420;2023-02-10T03:43:39;26.33;;;23.53;;
72109;SDS011;59983;52.010;5.420;2023-02-10T03:46:08;28.35;;;22.98;;
72109;SDS011;59983;52.010;5.420;2023-02-10T03:48:35;25.20;;;21.95;;
72109;SDS011;59983;52.010;5.420;2023-02-10T03:51:03;24.77;;;21.23;;
72109;SDS011;59983;52.010;5.420;2023-02-10T03:53:31;26.85;;;22.60;;
72109;SDS011;59983;52.010;5.420;2023-02-10T03:55:58;32.70;;;22.93;;
72109;SDS011;59983;52.010;5.420;2023-02-10T03:58:25;29.85;;;24.05;;
72109;SDS011;59983;52.010;5.420;2023-02-10T04:00:52;37.70;;;21.60;;
72109;SDS011;59983;52.010;5.420;2023-02-10T04:03:18;28.80;;;24.05;;
72109;SDS011;59983;52.010;5.420;2023-02-10T04:05:45;40.90;;;24.45;;
72109;SDS011;59983;52.010;5.420;2023-02-10T04:08:12;37.17;;;23.53;;
72109;SDS011;59983;52.010;5.420;2023-02-10T04:10:39;27.65;;;22.90;;
72109;SDS011;59983;52.010;5.420;2023-02-10T04:13:06;34.22;;;23.90;;
72109;SDS011;59983;52.010;5.420;2023-02-10T04:15:32;34.50;;;21.75;;
72109;SDS011;59983;52.010;5.420;2023-02-10T04:17:59;31.92;;;22.63;;
72109;SDS011;59983;52.010;5.420;2023-02-10T04:20:26;36.70;;;25.10;;
72109;SDS011;59983;52.010;5.420;2023-02-10T04:22:52;35.40;;;25.13;;
72109;SDS011;59983;52.010;5.420;2023-02-10T04:25:19;36.33;;;23.58;;
72109;SDS011;59983;52.010;5.420;2023-02-10T04:27:45;33.85;;;23.58;;
72109;SDS011;59983;52.010;5.420;2023-02-10T04:30:12;37.78;;;24.08;;
72109;SDS011;59983;52.010;5.420;2023-02-10T04:32:39;35.77;;;21.60;;
72109;SDS011;59983;52.010;5.420;2023-02-10T04:35:05;25.95;;;22.02;;
72109;SDS011;59983;52.010;5.420;2023-02-10T04:37:32;36.10;;;22.67;;
72109;SDS011;59983;52.010;5.420;2023-02-10T04:39:58;36.95;;;22.27;;
72109;SDS011;59983;52.010;5.420;2023-02-10T04:42:25;32.72;;;23.55;;
72109;SDS011;59983;52.010;5.420;2023-02-10T04:44:57;27.10;;;22.47;;
72109;SDS011;59983;52.010;5.420;2023-02-10T04:47:25;27.55;;;22.38;;
72109;SDS011;59983;52.010;5.420;2023-02-10T04:49:53;24.70;;;21.50;;
72109;SDS011;59983;52.010;5.420;2023-02-10T04:52:20;26.92;;;22.35;;
72109;SDS011;59983;52.010;5.420;2023-02-10T04:54:47;33.88;;;23.00;;
72109;SDS011;59983;52.010;5.420;2023-02-10T04:57:13;27.30;;;23.20;;
72109;SDS011;59983;52.010;5.420;2023-02-10T04:59:40;29.80;;;22.75;;
72109;SDS011;59983;52.010;5.420;2023-02-10T05:02:06;24.85;;;21.73;;
72109;SDS011;59983;52.010;5.420;2023-02-10T05:04:33;23.30;;;21.00;;
72109;SDS011;59983;52.010;5.420;2023-02-10T05:06:59;29.42;;;21.65;;
72109;SDS011;59983;52.010;5.420;2023-02-10T05:09:26;26.13;;;22.37;;
72109;SDS011;59983;52.010;5.420;2023-02-10T05:11:53;25.08;;;22.45;;
72109;SDS011;59983;52.010;5.420;2023-02-10T05:14:20;25.33;;;20.98;;
72109;SDS011;59983;52.010;5.420;2023-02-10T05:16:46;25.60;;;22.60;;
72109;SDS011;59983;52.010;5.420;2023-02-10T05:19:13;25.70;;;22.83;;
72109;SDS011;59983;52.010;5.420;2023-02-10T05:21:39;27.03;;;23.97;;
72109;SDS011;59983;52.010;5.420;2023-02-10T05:24:06;33.17;;;23.23;;
72109;SDS011;59983;52.010;5.420;2023-02-10T05:26:33;27.42;;;22.63;;
72109;SDS011;59983;52.010;5.420;2023-02-10T05:28:59;32.22;;;23.10;;
72109;SDS011;59983;52.010;5.420;2023-02-10T05:31:26;25.38;;;22.67;;
72109;SDS011;59983;52.010;5.420;2023-02-10T05:33:52;30.37;;;23.57;;
72109;SDS011;59983;52.010;5.420;2023-02-10T05:36:20;28.02;;;23.30;;
72109;SDS011;59983;52.010;5.420;2023-02-10T05:38:47;28.65;;;23.15;;
72109;SDS011;59983;52.010;5.420;2023-02-10T05:41:32;27.00;;;23.08;;
72109;SDS011;59983;52.010;5.420;2023-02-10T05:44:01;29.38;;;24.38;;
72109;SDS011;59983;52.010;5.420;2023-02-10T05:46:27;29.40;;;22.27;;
72109;SDS011;59983;52.010;5.420;2023-02-10T05:48:54;30.63;;;23.75;;
72109;SDS011;59983;52.010;5.420;2023-02-10T05:51:20;35.42;;;22.92;;
72109;SDS011;59983;52.010;5.420;2023-02-10T05:53:47;34.28;;;26.00;;
72109;SDS011;59983;52.010;5.420;2023-02-10T05:56:13;33.28;;;25.90;;
72109;SDS011;59983;52.010;5.420;2023-02-10T05:58:40;39.90;;;25.37;;
72109;SDS011;59983;52.010;5.420;2023-02-10T06:01:06;36.90;;;25.10;;
72109;SDS011;59983;52.010;5.420;2023-02-10T06:03:34;41.65;;;29.23;;
72109;SDS011;59983;52.010;5.420;2023-02-10T06:06:00;37.72;;;27.50;;
72109;SDS011;59983;52.010;5.420;2023-02-10T06:08:27;37.30;;;25.63;;
72109;SDS011;59983;52.010;5.420;2023-02-10T06:10:53;38.47;;;26.43;;
72109;SDS011;59983;52.010;5.420;2023-02-10T06:13:20;34.85;;;24.80;;
72109;SDS011;59983;52.010;5.420;2023-02-10T06:15:47;33.95;;;24.45;;
72109;SDS011;59983;52.010;5.420;2023-02-10T06:18:14;39.65;;;25.60;;
72109;SDS011;59983;52.010;5.420;2023-02-10T06:20:40;34.85;;;25.08;;
72109;SDS011;59983;52.010;5.420;2023-02-10T06:23:07;35.13;;;25.70;;
72109;SDS011;59983;52.010;5.420;2023-02-10T06:25:33;39.88;;;26.55;;
72109;SDS011;59983;52.010;5.420;2023-02-10T06:28:02;38.00;;;24.55;;
72109;SDS011;59983;52.010;5.420;2023-02-10T06:30:28;34.85;;;25.40;;
72109;SDS011;59983;52.010;5.420;2023-02-10T06:32:55;38.35;;;24.63;;
72109;SDS011;59983;52.010;5.420;2023-02-10T06:35:22;41.23;;;26.13;;
72109;SDS011;59983;52.010;5.420;2023-02-10T06:37:48;35.60;;;25.65;;
72109;SDS011;59983;52.010;5.420;2023-02-10T06:40:15;41.55;;;24.65;;
72109;SDS011;59983;52.010;5.420;2023-02-10T06:42:41;33.78;;;24.20;;
72109;SDS011;59983;52.010;5.420;2023-02-10T06:45:08;32.38;;;23.17;;
72109;SDS011;59983;52.010;5.420;2023-02-10T06:47:35;53.73;;;23.07;;
72109;SDS011;59983;52.010;5.420;2023-02-10T06:50:02;54.08;;;22.98;;
72109;SDS011;59983;52.010;5.420;2023-02-10T06:52:29;28.40;;;22.95;;
72109;SDS011;59983;52.010;5.420;2023-02-10T06:54:56;31.95;;;23.02;;
72109;SDS011;59983;52.010;5.420;2023-02-10T06:57:22;28.20;;;22.83;;
72109;SDS011;59983;52.010;5.420;2023-02-10T06:59:52;44.33;;;23.03;;
72109;SDS011;59983;52.010;5.420;2023-02-10T07:02:19;27.55;;;22.33;;
72109;SDS011;59983;52.010;5.420;2023-02-10T07:04:45;35.80;;;24.02;;
72109;SDS011;59983;52.010;5.420;2023-02-10T07:07:12;38.22;;;24.08;;
72109;SDS011;59983;52.010;5.420;2023-02-10T07:09:38;36.42;;;24.58;;
72109;SDS011;59983;52.010;5.420;2023-02-10T07:12:05;31.60;;;23.60;;
72109;SDS011;59983;52.010;5.420;2023-02-10T07:14:32;30.95;;;24.10;;
72109;SDS011;59983;52.010;5.420;2023-02-10T07:16:58;29.95;;;23.73;;
72109;SDS011;59983;52.010;5.420;2023-02-10T07:19:24;32.03;;;21.98;;
72109;SDS011;59983;52.010;5.420;2023-02-10T07:21:51;35.17;;;22.20;;
72109;SDS011;59983;52.010;5.420;2023-02-10T07:24:18;44.17;;;21.47;;
72109;SDS011;59983;52.010;5.420;2023-02-10T07:26:44;38.53;;;23.30;;
72109;SDS011;59983;52.010;5.420;2023-02-10T07:29:11;39.03;;;22.67;;
72109;SDS011;59983;52.010;5.420;2023-02-10T07:31:37;33.97;;;23.25;;
72109;SDS011;59983;52.010;5.420;2023-02-10T07:34:04;73.82;;;23.00;;
72109;SDS011;59983;52.010;5.420;2023-02-10T07:36:31;44.37;;;24.07;;
72109;SDS011;59983;52.010;5.420;2023-02-10T07:38:57;94.85;;;23.38;;
72109;SDS011;59983;52.010;5.420;2023-02-10T07:41:24;41.72;;;21.95;;
72109;SDS011;59983;52.010;5.420;2023-02-10T07:43:51;80.28;;;24.10;;
72109;SDS011;59983;52.010;5.420;2023-02-10T07:46:18;76.20;;;25.73;;
72109;SDS011;59983;52.010;5.420;2023-02-10T07:48:44;51.27;;;24.10;;
72109;SDS011;59983;52.010;5.420;2023-02-10T07:51:11;46.30;;;25.20;;
72109;SDS011;59983;52.010;5.420;2023-02-10T07:53:37;61.35;;;25.13;;
72109;SDS011;59983;52.010;5.420;2023-02-10T07:56:04;36.58;;;25.52;;
72109;SDS011;59983;52.010;5.420;2023-02-10T07:58:31;43.45;;;24.27;;
72109;SDS011;59983;52.010;5.420;2023-02-10T08:00:58;49.90;;;24.57;;
72109;SDS011;59983;52.010;5.420;2023-02-10T08:03:25;40.80;;;24.50;;
72109;SDS011;59983;52.010;5.420;2023-02-10T08:05:51;44.45;;;26.55;;
72109;SDS011;59983;52.010;5.420;2023-02-10T08:08:18;34.90;;;23.58;;
72109;SDS011;59983;52.010;5.420;2023-02-10T08:10:44;36.30;;;26.27;;
72109;SDS011;59983;52.010;5.420;2023-02-10T08:13:11;32.47;;;24.20;;
72109;SDS011;59983;52.010;5.420;2023-02-10T08:15:38;52.17;;;25.75;;
72109;SDS011;59983;52.010;5.420;2023-02-10T08:18:04;36.97;;;25.38;;
72109;SDS011;59983;52.010;5.420;2023-02-10T08:20:31;63.65;;;27.15;;
72109;SDS011;59983;52.010;5.420;2023-02-10T08:22:58;49.42;;;26.67;;
72109;SDS011;59983;52.010;5.420;2023-02-10T08:25:25;40.23;;;28.43;;
72109;SDS011;59983;52.010;5.420;2023-02-10T08:27:52;44.50;;;29.55;;
72109;SDS011;59983;52.010;5.420;2023-02-10T08:30:19;48.15;;;29.90;;
72109;SDS011;59983;52.010;5.420;2023-02-10T08:32:46;53.47;;;30.45;;
72109;SDS011;59983;52.010;5.420;2023-02-10T08:35:15;51.72;;;29.33;;
72109;SDS011;59983;52.010;5.420;2023-02-10T08:37:41;47.57;;;28.20;;
72109;SDS011;59983;52.010;5.420;2023-02-10T08:40:08;43.28;;;26.65;;
72109;SDS011;59983;52.010;5.420;2023-02-10T08:42:35;92.30;;;52.70;;
72109;SDS011;59983;52.010;5.420;2023-02-10T08:45:02;83.72;;;51.03;;
72109;SDS011;59983;52.010;5.420;2023-02-10T08:47:29;53.63;;;35.72;;
72109;SDS011;59983;52.010;5.420;2023-02-10T08:49:55;48.13;;;29.37;;
72109;SDS011;59983;52.010;5.420;2023-02-10T08:52:22;43.45;;;26.42;;
72109;SDS011;59983;52.010;5.420;2023-02-10T08:54:49;41.67;;;28.40;;
72109;SDS011;59983;52.010;5.420;2023-02-10T08:57:16;45.35;;;28.27;;
72109;SDS011;59983;52.010;5.420;2023-02-10T08:59:43;44.95;;;26.95;;
72109;SDS011;59983;52.010;5.420;2023-02-10T09:02:11;45.13;;;26.57;;
72109;SDS011;59983;52.010;5.420;2023-02-10T09:04:38;42.97;;;28.55;;
72109;SDS011;59983;52.010;5.420;2023-02-10T09:07:05;37.92;;;26.38;;
72109;SDS011;59983;52.010;5.420;2023-02-10T09:09:36;53.33;;;32.38;;
72109;SDS011;59983;52.010;5.420;2023-02-10T09:12:05;44.05;;;29.30;;
72109;SDS011;59983;52.010;5.420;2023-02-10T09:14:35;45.23;;;29.43;;
72109;SDS011;59983;52.010;5.420;2023-02-10T09:17:02;52.80;;;34.05;;
72109;SDS011;59983;52.010;5.420;2023-02-10T09:19:29;43.83;;;29.67;;
72109;SDS011;59983;52.010;5.420;2023-02-10T09:21:55;35.67;;;26.52;;
72109;SDS011;59983;52.010;5.420;2023-02-10T09:24:22;43.17;;;28.75;;
72109;SDS011;59983;52.010;5.420;2023-02-10T09:26:50;42.60;;;29.57;;
72109;SDS011;59983;52.010;5.420;2023-02-10T09:29:16;42.15;;;28.38;;
72109;SDS011;59983;52.010;5.420;2023-02-10T09:31:43;36.05;;;26.30;;
72109;SDS011;59983;52.010;5.420;2023-02-10T09:34:10;40.92;;;25.25;;
72109;SDS011;59983;52.010;5.420;2023-02-10T09:36:37;41.70;;;27.73;;
72109;SDS011;59983;52.010;5.420;2023-02-10T09:39:03;44.30;;;27.47;;
72109;SDS011;59983;52.010;5.420;2023-02-10T09:46:50;39.60;;;26.02;;
72109;SDS011;59983;52.010;5.420;2023-02-10T09:49:42;39.53;;;27.63;;
72109;SDS011;59983;52.010;5.420;2023-02-10T09:55:08;40.72;;;26.40;;
72109;SDS011;59983;52.010;5.420;2023-02-10T09:57:41;41.63;;;26.73;;
72109;SDS011;59983;52.010;5.420;2023-02-10T10:00:18;43.47;;;29.10;;
72109;SDS011;59983;52.010;5.420;2023-02-10T10:02:53;43.85;;;27.17;;
72109;SDS011;59983;52.010;5.420;2023-02-10T10:05:30;43.07;;;27.40;;
72109;SDS011;59983;52.010;5.420;2023-02-10T10:08:27;42.85;;;27.92;;
72109;SDS011;59983;52.010;5.420;2023-02-10T10:13:51;40.17;;;28.05;;
72109;SDS011;59983;52.010;5.420;2023-02-10T10:16:25;45.70;;;28.52;;
72109;SDS011;59983;52.010;5.420;2023-02-10T10:19:11;42.20;;;27.93;;
72109;SDS011;59983;52.010;5.420;2023-02-10T10:21:49;42.47;;;27.25;;
72109;SDS011;59983;52.010;5.420;2023-02-10T10:29:43;39.22;;;27.08;;
72109;SDS011;59983;52.010;5.420;2023-02-10T10:35:50;48.30;;;26.58;;
72109;SDS011;59983;52.010;5.420;2023-02-10T10:38:07;48.05;;;27.30;;
72109;SDS011;59983;52.010;5.420;2023-02-10T10:40:39;42.67;;;27.77;;
72109;SDS011;59983;52.010;5.420;2023-02-10T10:43:13;47.25;;;26.42;;
72109;SDS011;59983;52.010;5.420;2023-02-10T10:45:48;39.80;;;25.83;;
72109;SDS011;59983;52.010;5.420;2023-02-10T10:48:21;48.33;;;26.55;;
72109;SDS011;59983;52.010;5.420;2023-02-10T10:50:53;40.25;;;26.30;;
72109;SDS011;59983;52.010;5.420;2023-02-10T10:53:40;44.60;;;27.75;;
72109;SDS011;59983;52.010;5.420;2023-02-10T10:58:56;41.30;;;26.40;;
72109;SDS011;59983;52.010;5.420;2023-02-10T11:01:37;37.00;;;24.40;;
72109;SDS011;59983;52.010;5.420;2023-02-10T11:04:12;45.10;;;26.27;;
72109;SDS011;59983;52.010;5.420;2023-02-10T11:06:42;43.00;;;27.08;;
72109;SDS011;59983;52.010;5.420;2023-02-10T11:09:22;42.72;;;25.90;;
72109;SDS011;59983;52.010;5.420;2023-02-10T11:12:04;39.37;;;25.87;;
72109;SDS011;59983;52.010;5.420;2023-02-10T11:14:37;42.85;;;24.98;;
72109;SDS011;59983;52.010;5.420;2023-02-10T11:17:15;41.30;;;25.95;;
72109;SDS011;59983;52.010;5.420;2023-02-10T11:19:53;40.90;;;25.15;;
72109;SDS011;59983;52.010;5.420;2023-02-10T11:22:22;36.90;;;24.67;;
72109;SDS011;59983;52.010;5.420;2023-02-10T11:24:56;37.17;;;23.83;;
72109;SDS011;59983;52.010;5.420;2023-02-10T11:27:25;33.15;;;20.98;;
72109;SDS011;59983;52.010;5.420;2023-02-10T11:29:55;34.33;;;20.60;;
72109;SDS011;59983;52.010;5.420;2023-02-10T11:32:24;36.03;;;21.30;;
72109;SDS011;59983;52.010;5.420;2023-02-10T11:35:02;37.17;;;21.60;;
72109;SDS011;59983;52.010;5.420;2023-02-10T11:37:38;38.80;;;21.97;;
72109;SDS011;59983;52.010;5.420;2023-02-10T11:40:27;32.70;;;18.70;;
72109;SDS011;59983;52.010;5.420;2023-02-10T11:42:55;30.77;;;18.83;;
72109;SDS011;59983;52.010;5.420;2023-02-10T11:45:25;22.27;;;16.85;;
72109;SDS011;59983;52.010;5.420;2023-02-10T11:48:04;32.08;;;17.65;;
72109;SDS011;59983;52.010;5.420;2023-02-10T11:50:39;28.90;;;17.87;;
72109;SDS011;59983;52.010;5.420;2023-02-10T11:53:07;31.15;;;20.25;;
72109;SDS011;59983;52.010;5.420;2023-02-10T11:55:53;33.22;;;19.05;;
72109;SDS011;59983;52.010;5.420;2023-02-10T11:58:45;32.90;;;20.42;;
72109;SDS011;59983;52.010;5.420;2023-02-10T12:01:36;37.50;;;20.83;;
72109;SDS011;59983;52.010;5.420;2023-02-10T12:15:29;36.65;;;20.48;;
72109;SDS011;59983;52.010;5.420;2023-02-10T12:31:53;32.37;;;19.70;;
72109;SDS011;59983;52.010;5.420;2023-02-10T12:37:37;37.78;;;21.35;;
72109;SDS011;59983;52.010;5.420;2023-02-10T12:43:07;37.30;;;21.60;;
72109;SDS011;59983;52.010;5.420;2023-02-10T12:48:18;35.25;;;20.27;;
72109;SDS011;59983;52.010;5.420;2023-02-10T12:53:44;37.75;;;20.58;;
72109;SDS011;59983;52.010;5.420;2023-02-10T12:56:37;42.67;;;22.52;;
72109;SDS011;59983;52.010;5.420;2023-02-10T12:59:12;43.67;;;21.40;;
72109;SDS011;59983;52.010;5.420;2023-02-10T13:04:33;44.72;;;23.60;;
72109;SDS011;59983;52.010;5.420;2023-02-10T13:07:24;45.30;;;21.70;;
72109;SDS011;59983;52.010;5.420;2023-02-10T13:12:58;34.30;;;21.70;;
72109;SDS011;59983;52.010;5.420;2023-02-10T13:15:50;37.45;;;21.02;;
72109;SDS011;59983;52.010;5.420;2023-02-10T13:18:29;35.10;;;19.98;;
72109;SDS011;59983;52.010;5.420;2023-02-10T13:21:02;43.35;;;24.23;;
72109;SDS011;59983;52.010;5.420;2023-02-10T13:23:45;49.53;;;26.40;;
72109;SDS011;59983;52.010;5.420;2023-02-10T13:34:27;43.80;;;24.17;;
72109;SDS011;59983;52.010;5.420;2023-02-10T13:37:13;46.85;;;24.25;;
72109;SDS011;59983;52.010;5.420;2023-02-10T13:39:59;37.37;;;22.73;;
72109;SDS011;59983;52.010;5.420;2023-02-10T13:42:33;37.40;;;22.30;;
72109;SDS011;59983;52.010;5.420;2023-02-10T13:50:21;48.67;;;28.25;;
72109;SDS011;59983;52.010;5.420;2023-02-10T13:53:25;53.57;;;29.10;;
72109;SDS011;59983;52.010;5.420;2023-02-10T14:04:00;59.42;;;33.40;;
72109;SDS011;59983;52.010;5.420;2023-02-10T14:06:38;57.80;;;31.87;;
72109;SDS011;59983;52.010;5.420;2023-02-10T14:09:17;58.83;;;30.95;;
72109;SDS011;59983;52.010;5.420;2023-02-10T14:12:22;66.47;;;36.00;;
72109;SDS011;59983;52.010;5.420;2023-02-10T14:14:51;67.43;;;37.35;;
72109;SDS011;59983;52.010;5.420;2023-02-10T14:17:22;70.85;;;36.28;;
72109;SDS011;59983;52.010;5.420;2023-02-10T14:19:55;66.17;;;34.53;;
72109;SDS011;59983;52.010;5.420;2023-02-10T14:27:40;57.17;;;31.67;;
72109;SDS011;59983;52.010;5.420;2023-02-10T14:30:15;63.10;;;33.17;;
72109;SDS011;59983;52.010;5.420;2023-02-10T14:32:46;57.43;;;30.67;;
72109;SDS011;59983;52.010;5.420;2023-02-10T14:35:17;46.30;;;29.05;;
72109;SDS011;59983;52.010;5.420;2023-02-10T14:37:55;44.47;;;28.55;;
72109;SDS011;59983;52.010;5.420;2023-02-10T14:40:24;52.03;;;29.70;;
72109;SDS011;59983;52.010;5.420;2023-02-10T14:42:53;38.53;;;24.65;;
72109;SDS011;59983;52.010;5.420;2023-02-10T14:47:48;41.92;;;26.52;;
72109;SDS011;59983;52.010;5.420;2023-02-10T14:52:56;40.00;;;24.40;;
72109;SDS011;59983;52.010;5.420;2023-02-10T14:58:05;32.93;;;21.77;;
72109;SDS011;59983;52.010;5.420;2023-02-10T15:00:37;42.75;;;27.38;;
72109;SDS011;59983;52.010;5.420;2023-02-10T15:03:06;45.47;;;28.65;;
72109;SDS011;59983;52.010;5.420;2023-02-10T15:05:38;38.70;;;26.25;;
72109;SDS011;59983;52.010;5.420;2023-02-10T15:08:17;53.13;;;29.25;;
72109;SDS011;59983;52.010;5.420;2023-02-10T15:10:48;50.00;;;28.60;;
72109;SDS011;59983;52.010;5.420;2023-02-10T15:13:25;54.90;;;33.90;;
72109;SDS011;59983;52.010;5.420;2023-02-10T15:15:59;55.00;;;31.92;;
72109;SDS011;59983;52.010;5.420;2023-02-10T15:18:29;61.40;;;33.97;;
72109;SDS011;59983;52.010;5.420;2023-02-10T15:23:25;60.70;;;34.50;;
72109;SDS011;59983;52.010;5.420;2023-02-10T15:28:31;58.45;;;33.28;;
72109;SDS011;59983;52.010;5.420;2023-02-10T15:33:53;61.65;;;32.65;;
72109;SDS011;59983;52.010;5.420;2023-02-10T15:36:22;49.83;;;28.07;;
72109;SDS011;59983;52.010;5.420;2023-02-10T15:44:04;55.90;;;29.58;;
72109;SDS011;59983;52.010;5.420;2023-02-10T15:49:13;55.57;;;30.20;;
72109;SDS011;59983;52.010;5.420;2023-02-10T15:51:45;60.92;;;34.13;;
72109;SDS011;59983;52.010;5.420;2023-02-10T15:54:22;55.60;;;31.15;;
72109;SDS011;59983;52.010;5.420;2023-02-10T15:56:55;56.78;;;31.15;;
72109;SDS011;59983;52.010;5.420;2023-02-10T15:59:22;58.67;;;31.83;;
72109;SDS011;59983;52.010;5.420;2023-02-10T16:01:57;53.63;;;32.67;;
72109;SDS011;59983;52.010;5.420;2023-02-10T16:04:24;52.15;;;30.58;;
72109;SDS011;59983;52.010;5.420;2023-02-10T16:06:53;55.58;;;30.08;;
72109;SDS011;59983;52.010;5.420;2023-02-10T16:09:20;54.10;;;31.83;;
72109;SDS011;59983;52.010;5.420;2023-02-10T16:11:47;62.22;;;32.70;;
72109;SDS011;59983;52.010;5.420;2023-02-10T16:14:13;58.07;;;34.30;;
72109;SDS011;59983;52.010;5.420;2023-02-10T16:16:42;64.90;;;34.30;;
72109;SDS011;59983;52.010;5.420;2023-02-10T16:19:11;58.80;;;29.85;;
72109;SDS011;59983;52.010;5.420;2023-02-10T16:21:40;61.60;;;33.15;;
72109;SDS011;59983;52.010;5.420;2023-02-10T16:24:11;55.70;;;32.45;;
72109;SDS011;59983;52.010;5.420;2023-02-10T16:26:40;68.20;;;37.97;;
72109;SDS011;59983;52.010;5.420;2023-02-10T16:29:10;67.90;;;36.40;;
72109;SDS011;59983;52.010;5.420;2023-02-10T16:31:45;59.70;;;32.28;;
72109;SDS011;59983;52.010;5.420;2023-02-10T16:34:12;55.92;;;32.15;;
72109;SDS011;59983;52.010;5.420;2023-02-10T16:36:38;67.30;;;36.38;;
72109;SDS011;59983;52.010;5.420;2023-02-10T16:39:08;60.53;;;36.60;;
72109;SDS011;59983;52.010;5.420;2023-02-10T16:41:38;56.10;;;34.53;;
72109;SDS011;59983;52.010;5.420;2023-02-10T16:44:05;73.45;;;37.60;;
72109;SDS011;59983;52.010;5.420;2023-02-10T16:46:32;64.03;;;36.03;;
72109;SDS011;59983;52.010;5.420;2023-02-10T16:48:58;68.50;;;38.55;;
72109;SDS011;59983;52.010;5.420;2023-02-10T16:51:25;60.83;;;35.07;;
72109;SDS011;59983;52.010;5.420;2023-02-10T16:53:51;64.97;;;38.88;;
72109;SDS011;59983;52.010;5.420;2023-02-10T16:56:21;58.75;;;34.88;;
72109;SDS011;59983;52.010;5.420;2023-02-10T16:58:49;61.30;;;34.92;;
72109;SDS011;59983;52.010;5.420;2023-02-10T17:01:16;65.03;;;38.40;;
72109;SDS011;59983;52.010;5.420;2023-02-10T17:03:43;62.13;;;37.43;;
72109;SDS011;59983;52.010;5.420;2023-02-10T17:06:17;69.32;;;37.55;;
72109;SDS011;59983;52.010;5.420;2023-02-10T17:08:45;66.50;;;37.03;;
72109;SDS011;59983;52.010;5.420;2023-02-10T17:11:13;69.40;;;39.53;;
72109;SDS011;59983;52.010;5.420;2023-02-10T17:13:40;56.55;;;34.80;;
72109;SDS011;59983;52.010;5.420;2023-02-10T17:16:09;64.67;;;36.17;;
72109;SDS011;59983;52.010;5.420;2023-02-10T17:18:56;59.75;;;35.63;;
72109;SDS011;59983;52.010;5.420;2023-02-10T17:21:23;62.55;;;38.53;;
72109;SDS011;59983;52.010;5.420;2023-02-10T17:23:49;66.25;;;37.28;;
72109;SDS011;59983;52.010;5.420;2023-02-10T17:26:16;60.10;;;34.38;;
72109;SDS011;59983;52.010;5.420;2023-02-10T17:28:42;61.23;;;37.80;;
72109;SDS011;59983;52.010;5.420;2023-02-10T17:31:16;67.68;;;38.47;;
72109;SDS011;59983;52.010;5.420;2023-02-10T17:33:44;64.60;;;36.30;;
72109;SDS011;59983;52.010;5.420;2023-02-10T17:36:16;64.53;;;35.03;;
72109;SDS011;59983;52.010;5.420;2023-02-10T17:38:44;60.35;;;37.05;;
72109;SDS011;59983;52.010;5.420;2023-02-10T17:41:13;67.53;;;38.83;;
72109;SDS011;59983;52.010;5.420;2023-02-10T17:43:40;63.85;;;39.05;;
72109;SDS011;59983;52.010;5.420;2023-02-10T17:46:06;60.50;;;35.65;;
72109;SDS011;59983;52.010;5.420;2023-02-10T17:48:33;54.72;;;33.58;;
72109;SDS011;59983;52.010;5.420;2023-02-10T17:51:02;59.35;;;35.97;;
72109;SDS011;59983;52.010;5.420;2023-02-10T17:53:30;63.80;;;35.53;;
72109;SDS011;59983;52.010;5.420;2023-02-10T17:55:57;63.47;;;36.88;;
72109;SDS011;59983;52.010;5.420;2023-02-10T17:58:24;56.30;;;35.72;;
72109;SDS011;59983;52.010;5.420;2023-02-10T18:00:50;66.22;;;37.20;;
72109;SDS011;59983;52.010;5.420;2023-02-10T18:03:17;60.95;;;35.05;;
72109;SDS011;59983;52.010;5.420;2023-02-10T18:05:43;42.13;;;28.53;;
72109;SDS011;59983;52.010;5.420;2023-02-10T18:08:10;54.95;;;33.35;;
72109;SDS011;59983;52.010;5.420;2023-02-10T18:10:37;58.67;;;36.45;;